createdAt,value
2023-04-14T00:00:46.300Z,3.37
2023-04-14T00:03:13.421Z,3.57
2023-04-14T00:05:40.619Z,3.13
2023-04-14T00:08:07.565Z,3.97
2023-04-14T00:10:34.496Z,3.30
2023-04-14T00:13:02.096Z,2.97
2023-04-14T00:15:29.133Z,3.87
2023-04-14T00:17:57.414Z,3.47
2023-04-14T00:20:24.617Z,3.70
2023-04-14T00:22:51.740Z,3.83
2023-04-14T00:25:19.524Z,3.67
2023-04-14T00:27:46.408Z,3.60
2023-04-14T00:30:13.940Z,3.30
2023-04-14T00:32:40.903Z,3.13
2023-04-14T00:35:09.602Z,3.60
2023-04-14T00:37:36.526Z,3.13
2023-04-14T00:40:03.843Z,3.00
2023-04-14T00:42:31.861Z,3.17
2023-04-14T00:44:58.832Z,3.37
2023-04-14T00:47:26.994Z,2.87
2023-04-14T00:49:53.929Z,2.73
2023-04-14T00:52:25.465Z,2.93
2023-04-14T00:54:52.483Z,2.90
2023-04-14T00:57:19.515Z,3.17
2023-04-14T00:59:46.433Z,3.37
2023-04-14T01:02:13.602Z,2.70
2023-04-14T01:04:53.025Z,2.90
2023-04-14T01:07:25.564Z,3.57
2023-04-14T01:09:55.768Z,2.90
2023-04-14T01:12:38.861Z,2.47
2023-04-14T01:15:17.078Z,3.27
2023-04-14T01:17:53.028Z,3.33
2023-04-14T01:20:29.185Z,3.27
2023-04-14T01:23:06.263Z,2.80
2023-04-14T01:26:20.661Z,3.00
2023-04-14T01:29:44.054Z,3.17
2023-04-14T01:32:21.360Z,2.97
2023-04-14T01:34:55.628Z,3.60
2023-04-14T01:37:30.572Z,3.30
2023-04-14T01:40:03.132Z,3.23
2023-04-14T01:42:36.457Z,3.50
2023-04-14T01:45:11.712Z,3.83
2023-04-14T01:47:42.442Z,3.77
2023-04-14T01:50:13.367Z,3.70
2023-04-14T01:52:44.311Z,3.70
2023-04-14T01:55:15.415Z,4.30
2023-04-14T01:57:46.143Z,3.73
2023-04-14T02:00:16.337Z,3.70
2023-04-14T02:02:48.837Z,3.20
2023-04-14T02:05:18.310Z,4.03
2023-04-14T02:07:47.799Z,3.50
2023-04-14T02:10:17.526Z,3.40
2023-04-14T02:12:45.689Z,3.90
2023-04-14T02:15:17.284Z,4.20
2023-04-14T02:17:49.319Z,3.23
2023-04-14T02:20:17.102Z,4.13
2023-04-14T02:22:44.069Z,4.20
2023-04-14T02:25:11.229Z,4.83
2023-04-14T02:27:48.422Z,3.67
2023-04-14T02:30:22.417Z,3.87
2023-04-14T02:33:01.780Z,4.37
2023-04-14T02:35:37.884Z,5.07
2023-04-14T02:38:13.688Z,4.50
2023-04-14T02:40:43.752Z,4.33
2023-04-14T02:43:18.025Z,4.20
2023-04-14T02:45:49.026Z,4.00
2023-04-14T02:48:21.344Z,3.47
2023-04-14T02:50:53.180Z,3.93
2023-04-14T02:53:24.264Z,3.67
2023-04-14T02:55:54.575Z,3.47
2023-04-14T02:58:22.091Z,3.80
2023-04-14T03:00:52.109Z,3.83
2023-04-14T03:03:21.179Z,4.00
2023-04-14T03:05:48.860Z,4.17
2023-04-14T03:08:16.876Z,3.90
2023-04-14T03:10:48.048Z,3.70
2023-04-14T03:13:17.704Z,3.93
2023-04-14T03:15:46.544Z,4.20
2023-04-14T03:18:15.760Z,4.13
2023-04-14T03:20:45.891Z,3.53
2023-04-14T03:23:18.869Z,3.97
2023-04-14T03:25:47.948Z,4.00
2023-04-14T03:28:22.763Z,4.10
2023-04-14T03:30:54.998Z,4.13
2023-04-14T03:33:28.898Z,4.30
2023-04-14T03:36:00.293Z,4.33
2023-04-14T03:38:28.305Z,4.53
2023-04-14T03:40:59.869Z,4.63
2023-04-14T03:43:29.371Z,4.23
2023-04-14T03:45:58.075Z,4.97
2023-04-14T03:48:29.691Z,4.67
2023-04-14T03:50:59.934Z,4.53
2023-04-14T03:53:31.036Z,4.50
2023-04-14T03:55:59.988Z,4.47
2023-04-14T03:58:31.030Z,4.83
2023-04-14T04:00:59.395Z,5.13
2023-04-14T04:03:28.807Z,4.97
2023-04-14T04:05:57.778Z,4.93
2023-04-14T04:08:25.690Z,5.17
2023-04-14T04:11:07.768Z,5.37
2023-04-14T04:13:41.947Z,5.10
2023-04-14T04:16:13.207Z,4.53
2023-04-14T04:18:46.763Z,4.77
2023-04-14T04:21:19.224Z,4.60
2023-04-14T04:23:52.400Z,4.90
2023-04-14T04:26:19.722Z,4.87
2023-04-14T04:28:47.278Z,4.67
2023-04-14T04:31:15.942Z,4.90
2023-04-14T04:33:45.134Z,4.93
2023-04-14T04:36:13.569Z,4.60
2023-04-14T04:38:42.846Z,5.03
2023-04-14T04:41:21.669Z,4.80
2023-04-14T04:43:48.548Z,5.07
2023-04-14T04:46:39.164Z,4.97
2023-04-14T04:49:06.122Z,5.03
2023-04-14T04:51:33.154Z,5.17
2023-04-14T04:54:01.372Z,5.37
2023-04-14T04:56:28.264Z,5.23
2023-04-14T04:58:55.137Z,4.47
2023-04-14T05:01:22.066Z,5.33
2023-04-14T05:03:49.008Z,4.83
2023-04-14T05:06:16.556Z,4.50
2023-04-14T05:08:43.517Z,4.17
2023-04-14T05:11:11.928Z,4.37
2023-04-14T05:13:38.940Z,4.77
2023-04-14T05:16:09.150Z,4.83
2023-04-14T05:18:36.792Z,5.33
2023-04-14T05:21:04.963Z,4.50
2023-04-14T05:23:34.430Z,5.30
2023-04-14T05:26:16.224Z,4.50
2023-04-14T05:28:49.864Z,4.40
2023-04-14T05:31:16.902Z,4.77
2023-04-14T05:33:43.953Z,5.43
2023-04-14T05:36:11.264Z,4.10
2023-04-14T05:38:42.023Z,4.40
2023-04-14T05:41:09.084Z,3.70
2023-04-14T05:43:36.771Z,4.57
2023-04-14T05:46:05.575Z,4.10
2023-04-14T05:48:33.368Z,4.63
2023-04-14T05:51:00.660Z,11.43
2023-04-14T05:53:27.774Z,11.43
2023-04-14T05:55:56.906Z,7.27
2023-04-14T05:58:26.374Z,5.60
2023-04-14T06:00:53.398Z,5.80
2023-04-14T06:03:21.874Z,4.93
2023-04-14T06:05:50.484Z,5.07
2023-04-14T06:08:18.697Z,5.30
2023-04-14T06:10:45.701Z,4.83
2023-04-14T06:13:12.613Z,5.37
2023-04-14T06:15:39.482Z,5.07
2023-04-14T06:18:06.454Z,4.57
2023-04-14T06:20:36.058Z,4.90
2023-04-14T06:23:03.059Z,6.60
2023-04-14T06:25:30.835Z,5.00
2023-04-14T06:27:57.774Z,5.00
2023-04-14T06:30:25.600Z,7.03
2023-04-14T06:32:54.446Z,6.23
2023-04-14T06:35:32.436Z,5.87
2023-04-14T06:38:02.267Z,4.30
2023-04-14T06:40:29.574Z,4.97
2023-04-14T06:42:56.605Z,4.67
2023-04-14T06:45:23.511Z,5.20
2023-04-14T06:47:50.786Z,5.10
2023-04-14T06:50:17.970Z,4.13
2023-04-14T06:52:44.900Z,5.20
2023-04-14T06:55:13.112Z,5.47
2023-04-14T06:57:40.369Z,5.30
2023-04-14T07:00:10.554Z,5.37
2023-04-14T07:02:56.064Z,5.40
2023-04-14T07:05:29.226Z,5.27
2023-04-14T07:07:56.136Z,4.70
2023-04-14T07:10:24.451Z,4.50
2023-04-14T07:12:51.428Z,4.00
2023-04-14T07:15:18.805Z,4.13
2023-04-14T07:17:45.809Z,4.30
2023-04-14T07:20:13.323Z,3.83
2023-04-14T07:22:40.614Z,3.93
2023-04-14T07:25:08.381Z,4.23
2023-04-14T07:27:36.761Z,3.73
2023-04-14T07:30:04.986Z,3.53
2023-04-14T07:32:32.965Z,3.60
2023-04-14T07:35:00.519Z,3.40
2023-04-14T07:37:27.472Z,3.53
2023-04-14T07:39:54.423Z,3.13
2023-04-14T07:42:21.632Z,2.80
2023-04-14T07:44:49.936Z,3.17
2023-04-14T07:47:19.087Z,3.43
2023-04-14T07:49:46.202Z,2.93
2023-04-14T07:52:13.122Z,2.13
2023-04-14T07:54:40.150Z,9.73
2023-04-14T07:57:09.867Z,4.90
2023-04-14T07:59:38.196Z,2.43
2023-04-14T08:02:07.455Z,4.33
2023-04-14T08:04:34.720Z,5.67
2023-04-14T08:07:01.758Z,5.47
2023-04-14T08:09:28.857Z,2.10
2023-04-14T08:11:57.225Z,2.43
2023-04-14T08:14:24.203Z,2.00
2023-04-14T08:16:51.504Z,2.40
2023-04-14T08:19:19.838Z,3.17
2023-04-14T08:21:47.205Z,2.10
2023-04-14T08:24:14.111Z,1.90
2023-04-14T08:26:41.162Z,1.90
2023-04-14T08:29:08.081Z,2.40
2023-04-14T08:31:35.511Z,1.83
2023-04-14T08:34:03.040Z,2.27
2023-04-14T08:36:31.443Z,2.13
2023-04-14T08:39:00.226Z,4.77
2023-04-14T08:41:32.133Z,1.87
2023-04-14T08:43:59.071Z,2.17
2023-04-14T08:46:28.454Z,2.00
2023-04-14T08:49:04.616Z,1.97
2023-04-14T08:51:36.579Z,2.17
2023-04-14T08:54:10.044Z,2.03
2023-04-14T08:56:39.372Z,2.43
2023-04-14T08:59:07.940Z,1.50
2023-04-14T09:01:36.928Z,1.73
2023-04-14T09:04:05.479Z,2.30
2023-04-14T09:06:35.471Z,1.70
2023-04-14T09:09:05.156Z,2.27
2023-04-14T09:11:32.288Z,4.07
2023-04-14T09:14:00.511Z,3.57
2023-04-14T09:16:28.835Z,6.43
2023-04-14T09:18:58.038Z,2.23
2023-04-14T09:21:52.950Z,2.10
2023-04-14T09:24:30.284Z,2.10
2023-04-14T09:27:01.892Z,1.67
2023-04-14T09:29:29.376Z,3.90
2023-04-14T09:31:56.925Z,3.57
2023-04-14T09:34:23.984Z,2.27
2023-04-14T09:37:05.136Z,2.20
2023-04-14T09:39:32.708Z,2.43
2023-04-14T09:41:59.827Z,2.43
2023-04-14T09:44:26.962Z,3.00
2023-04-14T09:46:59.336Z,2.40
2023-04-14T09:49:26.743Z,2.67
2023-04-14T09:51:57.463Z,2.42
2023-04-14T09:54:26.985Z,2.28
2023-04-14T09:56:54.719Z,2.05
2023-04-14T09:59:33.816Z,3.85
2023-04-14T10:02:04.738Z,2.30
2023-04-14T10:04:32.124Z,2.10
2023-04-14T10:06:59.977Z,3.30
2023-04-14T10:09:30.993Z,9.83
2023-04-14T10:12:12.794Z,3.00
2023-04-14T10:14:41.355Z,2.53
2023-04-14T10:17:09.261Z,2.30
2023-04-14T10:19:37.914Z,1.50
2023-04-14T10:22:06.327Z,1.83
2023-04-14T10:24:34.914Z,2.03
2023-04-14T10:27:03.610Z,1.87
2023-04-14T10:29:31.180Z,1.90
2023-04-14T10:32:05.921Z,1.97
2023-04-14T10:34:35.297Z,1.57
2023-04-14T10:37:13.697Z,2.50
2023-04-14T10:39:42.912Z,3.83
2023-04-14T10:42:10.662Z,1.83
2023-04-14T10:44:38.206Z,1.90
2023-04-14T10:47:08.412Z,5.63
2023-04-14T10:49:39.113Z,2.53
2023-04-14T10:52:33.144Z,1.93
2023-04-14T10:55:09.606Z,2.30
2023-04-14T10:57:40.903Z,1.97
2023-04-14T11:00:24.226Z,2.37
2023-04-14T11:02:57.765Z,1.87
2023-04-14T11:05:25.627Z,2.13
2023-04-14T11:08:00.701Z,2.30
2023-04-14T11:10:32.531Z,10.33
2023-04-14T11:13:05.286Z,1.70
2023-04-14T11:15:50.781Z,2.07
2023-04-14T11:18:32.202Z,5.20
2023-04-14T11:21:06.502Z,2.42
2023-04-14T11:23:35.170Z,2.20
2023-04-14T11:26:06.470Z,1.70
2023-04-14T11:28:35.428Z,1.70
2023-04-14T11:31:05.214Z,2.20
2023-04-14T11:33:35.835Z,1.93
2023-04-14T11:36:05.738Z,2.17
2023-04-14T11:38:35.907Z,2.53
2023-04-14T11:41:04.369Z,2.20
2023-04-14T11:43:31.848Z,2.50
2023-04-14T11:46:03.181Z,2.47
2023-04-14T11:48:33.678Z,1.47
2023-04-14T11:51:03.647Z,1.93
2023-04-14T11:53:32.021Z,2.10
2023-04-14T11:56:00.681Z,1.87
2023-04-14T11:58:29.219Z,1.80
2023-04-14T12:00:59.748Z,2.37
2023-04-14T12:03:28.265Z,2.43
2023-04-14T12:05:58.327Z,1.90
2023-04-14T12:08:25.851Z,2.20
2023-04-14T12:10:54.052Z,1.60
2023-04-14T12:13:21.297Z,1.53
2023-04-14T12:15:50.311Z,2.07
2023-04-14T12:20:52.843Z,1.83
2023-04-14T12:23:20.158Z,1.90
2023-04-14T12:25:50.509Z,2.33
2023-04-14T12:28:18.522Z,2.37
2023-04-14T12:30:54.087Z,2.20
2023-04-14T12:33:23.968Z,3.70
2023-04-14T12:35:51.467Z,2.37
2023-04-14T12:38:18.416Z,2.40
2023-04-14T12:40:47.879Z,1.90
2023-04-14T12:43:18.540Z,1.80
2023-04-14T12:45:48.690Z,1.70
2023-04-14T12:48:18.144Z,2.40
2023-04-14T12:50:45.690Z,2.20
2023-04-14T12:53:32.158Z,2.27
2023-04-14T12:56:08.087Z,3.37
2023-04-14T12:58:37.642Z,2.73
2023-04-14T13:01:06.845Z,2.53
2023-04-14T13:03:46.776Z,1.90
2023-04-14T13:06:16.923Z,2.50
2023-04-14T13:08:44.741Z,3.00
2023-04-14T13:11:12.209Z,2.30
2023-04-14T13:13:39.290Z,3.70
2023-04-14T13:16:15.423Z,2.00
2023-04-14T13:18:45.162Z,2.50
2023-04-14T13:21:12.943Z,2.27
2023-04-14T13:23:40.609Z,7.83
2023-04-14T13:26:07.830Z,2.80
2023-04-14T13:28:35.079Z,2.93
2023-04-14T13:31:02.540Z,2.00
2023-04-14T13:33:29.560Z,2.23
2023-04-14T13:35:57.896Z,2.50
2023-04-14T13:38:24.837Z,2.57
2023-04-14T13:40:51.762Z,2.10
2023-04-14T13:43:18.985Z,2.13
2023-04-14T13:45:46.911Z,2.20
2023-04-14T13:48:14.553Z,2.50
2023-04-14T13:50:42.255Z,3.93
2023-04-14T13:53:12.185Z,2.93
2023-04-14T13:55:39.280Z,2.03
2023-04-14T13:58:06.425Z,2.50
2023-04-14T14:00:33.836Z,2.90
2023-04-14T14:03:01.253Z,2.50
2023-04-14T14:05:29.029Z,1.93
2023-04-14T14:07:57.444Z,2.60
2023-04-14T14:10:25.789Z,3.30
2023-04-14T14:12:53.215Z,2.67
2023-04-14T14:15:20.341Z,2.20
2023-04-14T14:17:47.705Z,2.20
2023-04-14T14:20:14.696Z,2.47
2023-04-14T14:22:41.631Z,1.80
2023-04-14T14:25:19.249Z,2.20
2023-04-14T14:27:51.679Z,1.80
2023-04-14T14:30:18.744Z,2.43
2023-04-14T14:32:45.719Z,2.73
2023-04-14T14:35:12.828Z,2.67
2023-04-14T14:37:40.832Z,2.33
2023-04-14T14:40:09.610Z,2.17
2023-04-14T14:42:36.911Z,2.47
2023-04-14T14:45:06.917Z,2.70
2023-04-14T14:47:34.117Z,2.60
2023-04-14T14:50:04.362Z,4.00
2023-04-14T14:52:34.608Z,2.37
2023-04-14T14:55:01.922Z,2.57
2023-04-14T14:57:30.300Z,2.50
2023-04-14T14:59:57.706Z,2.40
2023-04-14T15:02:26.134Z,2.20
2023-04-14T15:04:54.438Z,2.33
2023-04-14T15:07:21.410Z,2.60
2023-04-14T15:09:50.650Z,2.50
2023-04-14T15:12:18.116Z,2.20
2023-04-14T15:14:45.152Z,2.40
2023-04-14T15:17:12.195Z,2.93
2023-04-14T15:19:42.013Z,2.50
2023-04-14T15:22:09.916Z,2.33
2023-04-14T15:24:36.825Z,10.93
2023-04-14T15:27:04.144Z,2.43
2023-04-14T15:29:31.754Z,2.30
2023-04-14T15:31:58.968Z,2.23
2023-04-14T15:34:27.709Z,1.80
2023-04-14T15:36:56.385Z,2.03
2023-04-14T15:39:23.489Z,2.03
2023-04-14T15:41:51.270Z,2.40
2023-04-14T15:44:18.598Z,1.93
2023-04-14T15:46:46.233Z,1.90
2023-04-14T15:49:13.167Z,2.37
2023-04-14T15:51:40.240Z,4.07
2023-04-14T15:54:08.481Z,2.73
2023-04-14T15:56:35.538Z,2.40
2023-04-14T15:59:02.461Z,2.13
2023-04-14T16:01:29.403Z,1.90
2023-04-14T16:03:56.550Z,2.50
2023-04-14T16:06:23.559Z,2.27
2023-04-14T16:08:50.535Z,1.77
2023-04-14T16:11:19.585Z,2.77
2023-04-14T16:13:46.751Z,2.60
2023-04-14T16:16:15.619Z,2.20
2023-04-14T16:18:42.675Z,2.20
2023-04-14T16:21:09.743Z,1.73
2023-04-14T16:23:36.704Z,1.83
2023-04-14T16:26:03.924Z,2.10
2023-04-14T16:28:32.314Z,2.93
2023-04-14T16:30:59.904Z,2.10
2023-04-14T16:33:27.482Z,2.20
2023-04-14T16:35:56.785Z,2.10
2023-04-14T16:38:23.829Z,2.10
2023-04-14T16:40:56.276Z,2.00
2023-04-14T16:43:24.504Z,1.93
2023-04-14T16:45:52.922Z,1.70
2023-04-14T16:48:20.129Z,2.43
2023-04-14T16:50:47.319Z,1.50
2023-04-14T16:53:14.535Z,2.17
2023-04-14T16:55:42.063Z,2.33
2023-04-14T16:58:09.785Z,2.47
2023-04-14T17:00:37.276Z,2.20
2023-04-14T17:03:06.876Z,2.00
2023-04-14T17:05:34.007Z,2.07
2023-04-14T17:08:00.933Z,2.20
2023-04-14T17:10:29.522Z,2.10
2023-04-14T17:12:56.767Z,1.63
2023-04-14T17:15:23.757Z,2.00
2023-04-14T17:17:50.930Z,1.70
2023-04-14T17:20:19.792Z,1.80
2023-04-14T17:22:48.209Z,2.37
2023-04-14T17:25:19.785Z,2.63
2023-04-14T17:27:48.036Z,2.00
2023-04-14T17:30:15.159Z,1.90
2023-04-14T17:32:42.270Z,1.80
2023-04-14T17:35:10.357Z,1.50
2023-04-14T17:37:38.993Z,1.80
2023-04-14T17:40:10.727Z,1.90
2023-04-14T17:42:38.643Z,1.90
2023-04-14T17:45:08.948Z,1.73
2023-04-14T17:47:38.063Z,2.57
2023-04-14T17:50:06.782Z,2.10
2023-04-14T17:52:35.369Z,1.67
2023-04-14T17:55:04.588Z,1.90
2023-04-14T17:57:31.661Z,2.00
2023-04-14T17:59:59.045Z,2.10
2023-04-14T18:02:26.186Z,1.67
2023-04-14T18:04:53.105Z,1.90
2023-04-14T18:07:20.143Z,1.70
2023-04-14T18:09:47.230Z,1.70
2023-04-14T18:12:15.510Z,1.73
2023-04-14T18:14:44.494Z,2.30
2023-04-14T18:17:11.604Z,1.97
2023-04-14T18:19:39.192Z,2.10
2023-04-14T18:22:06.566Z,2.57
2023-04-14T18:28:02.648Z,1.90
2023-04-14T18:29:54.229Z,2.47
2023-04-14T18:32:22.457Z,2.07
2023-04-14T18:34:49.626Z,2.20
2023-04-14T18:37:16.854Z,2.17
2023-04-14T18:39:45.382Z,2.17
2023-04-14T18:42:12.399Z,2.33
2023-04-14T18:44:39.275Z,2.77
2023-04-14T18:47:07.577Z,2.67
2023-04-14T18:49:34.903Z,2.73
2023-04-14T18:52:02.220Z,2.53
2023-04-14T18:54:29.495Z,2.63
2023-04-14T18:56:56.449Z,2.80
2023-04-14T18:59:23.863Z,2.47
2023-04-14T19:01:50.935Z,3.63
2023-04-14T19:04:19.237Z,2.70
2023-04-14T19:06:48.121Z,2.83
2023-04-14T19:09:15.623Z,14.17
2023-04-14T19:11:42.628Z,3.10
2023-04-14T19:14:09.514Z,2.97
2023-04-14T19:16:36.635Z,2.60
2023-04-14T19:19:04.115Z,2.90
2023-04-14T19:21:32.577Z,2.83
2023-04-14T19:23:59.593Z,3.03
2023-04-14T19:26:27.509Z,3.40
2023-04-14T19:28:57.434Z,3.00
2023-04-14T19:31:25.836Z,3.03
2023-04-14T19:33:52.761Z,5.70
2023-04-14T19:36:19.877Z,2.80
2023-04-14T19:38:48.134Z,3.53
2023-04-14T19:41:15.547Z,3.20
2023-04-14T19:43:42.476Z,3.30
2023-04-14T19:46:12.562Z,3.17
2023-04-14T19:48:40.324Z,3.90
2023-04-14T19:51:07.354Z,3.43
2023-04-14T19:53:34.390Z,3.30
2023-04-14T19:56:05.379Z,3.33
2023-04-14T19:58:32.843Z,3.63
2023-04-14T20:01:00.866Z,3.97
2023-04-14T20:03:28.281Z,4.00
2023-04-14T20:05:57.217Z,3.50
2023-04-14T20:08:25.126Z,3.10
2023-04-14T20:10:54.074Z,4.17
2023-04-14T20:13:24.296Z,3.50
2023-04-14T20:15:53.816Z,3.63
2023-04-14T20:18:22.290Z,4.20
2023-04-14T20:20:49.529Z,4.00
2023-04-14T20:23:16.916Z,4.00
2023-04-14T20:25:44.894Z,4.17
2023-04-14T20:28:11.873Z,3.97
2023-04-14T20:30:40.186Z,3.63
2023-04-14T20:33:07.207Z,3.63
2023-04-14T20:35:36.371Z,3.90
2023-04-14T20:38:03.346Z,4.60
2023-04-14T20:40:31.051Z,4.80
2023-04-14T20:42:58.300Z,4.90
2023-04-14T20:45:25.363Z,4.57
2023-04-14T20:47:53.681Z,4.53
2023-04-14T20:50:21.040Z,5.13
2023-04-14T20:52:48.656Z,4.67
2023-04-14T20:55:18.030Z,3.77
2023-04-14T20:57:46.084Z,4.50
2023-04-14T21:00:16.699Z,4.67
2023-04-14T21:02:44.286Z,4.70
2023-04-14T21:05:15.292Z,4.03
2023-04-14T21:07:43.612Z,4.27
2023-04-14T21:10:12.218Z,4.43
2023-04-14T21:12:54.207Z,4.23
2023-04-14T21:15:51.286Z,4.47
2023-04-14T21:18:13.928Z,3.80
2023-04-14T21:20:43.372Z,4.60
2023-04-14T21:23:10.319Z,4.87
2023-04-14T21:25:37.630Z,5.07
2023-04-14T21:28:05.237Z,5.20
2023-04-14T21:30:32.137Z,5.17
2023-04-14T21:32:59.083Z,5.13
2023-04-14T21:35:26.171Z,4.33
2023-04-14T21:37:54.409Z,5.47
2023-04-14T21:40:21.609Z,5.10
2023-04-14T21:42:49.070Z,4.43
2023-04-14T21:45:16.486Z,4.17
2023-04-14T21:47:43.671Z,5.10
2023-04-14T21:50:11.227Z,4.53
2023-04-14T21:52:38.838Z,4.80
2023-04-14T21:55:09.153Z,4.20
2023-04-14T21:57:48.620Z,4.70
2023-04-14T22:00:17.489Z,4.57
2023-04-14T22:02:44.973Z,4.90
2023-04-14T22:05:12.869Z,4.73
2023-04-14T22:07:39.885Z,4.67
2023-04-14T22:10:09.068Z,5.23
2023-04-14T22:12:36.119Z,4.83
2023-04-14T22:15:04.109Z,5.20
2023-04-14T22:17:31.256Z,5.67
2023-04-14T22:19:59.123Z,5.27
2023-04-14T22:22:26.058Z,4.87
2023-04-14T22:24:54.543Z,5.23
2023-04-14T22:27:23.088Z,4.90
2023-04-14T22:29:50.045Z,5.03
2023-04-14T22:32:17.095Z,4.80
2023-04-14T22:34:44.024Z,4.73
2023-04-14T22:37:11.311Z,5.07
2023-04-14T22:39:38.230Z,4.73
2023-04-14T22:42:05.198Z,5.77
2023-04-14T22:44:33.477Z,4.90
2023-04-14T22:47:01.057Z,5.27
2023-04-14T22:49:28.007Z,6.03
2023-04-14T22:51:54.916Z,6.07
2023-04-14T22:54:22.048Z,6.10
2023-04-14T22:56:48.990Z,5.53
2023-04-14T22:59:16.699Z,6.37
2023-04-14T23:01:44.986Z,6.10
2023-04-14T23:04:12.068Z,5.57
2023-04-14T23:06:39.480Z,5.60
2023-04-14T23:09:06.401Z,6.37
2023-04-14T23:11:33.596Z,6.30
2023-04-14T23:14:00.667Z,5.93
2023-04-14T23:16:27.617Z,6.43
2023-04-14T23:18:56.068Z,6.10
2023-04-14T23:21:23.045Z,6.30
2023-04-14T23:23:50.393Z,5.70
2023-04-14T23:26:19.294Z,5.30
2023-04-14T23:28:46.506Z,6.60
2023-04-14T23:31:13.713Z,5.80
2023-04-14T23:33:40.926Z,6.07
2023-04-14T23:36:09.213Z,5.93
2023-04-14T23:38:36.454Z,5.97
2023-04-14T23:41:03.578Z,6.53
2023-04-14T23:43:30.505Z,6.57
2023-04-14T23:45:57.808Z,5.93
2023-04-14T23:48:25.777Z,6.50
2023-04-14T23:51:00.941Z,5.60
2023-04-14T23:53:41.278Z,5.67
2023-04-14T23:56:08.332Z,5.63
2023-04-14T23:58:35.227Z,5.37
